Time;durP1;ratioP1;P1;durP2;ratioP2;P2;SDS_P1;SDS_P2;PMS_P1;PMS_P2;Temp;Humidity;BMP_temperature;BMP_pressure;BME280_temperature;BME280_humidity;BME280_pressure;Samples;Min_cycle;Max_cycle;Signal;HPM_P1;HPM_P2
2024/02/04 00:01:42;;;;;;;7.23;5.43;;;9.60;99.90;;;;;;5009533;28;20219;-69
2024/02/04 00:04:08;;;;;;;7.73;5.27;;;9.60;99.90;;;;;;5015057;28;20211;-69
2024/02/04 00:06:33;;;;;;;5.43;4.83;;;9.60;99.90;;;;;;5013691;28;20189;-69
2024/02/04 00:08:59;;;;;;;6.13;5.47;;;9.60;99.90;;;;;;5012973;28;20224;-69
2024/02/04 00:11:24;;;;;;;6.73;5.70;;;9.50;99.90;;;;;;5008574;28;20202;-69
2024/02/04 00:13:50;;;;;;;6.30;5.10;;;9.50;99.90;;;;;;5014863;28;20249;-69
2024/02/04 00:16:16;;;;;;;6.87;4.80;;;9.70;99.90;;;;;;5010344;28;20205;-69
2024/02/04 00:18:41;;;;;;;6.27;5.10;;;9.60;99.90;;;;;;5015902;28;20204;-69
2024/02/04 00:21:07;;;;;;;5.50;4.40;;;9.60;99.90;;;;;;5018142;28;20208;-70
2024/02/04 00:23:33;;;;;;;6.07;5.17;;;9.50;99.90;;;;;;5014385;28;20247;-69
2024/02/04 00:25:58;;;;;;;5.27;4.40;;;9.60;99.90;;;;;;5013988;28;20238;-69
2024/02/04 00:28:29;;;;;;;7.10;4.83;;;9.60;99.90;;;;;;5014295;28;20660;-69
2024/02/04 00:30:56;;;;;;;7.00;5.53;;;9.60;99.90;;;;;;5013260;28;20184;-69
2024/02/04 00:33:22;;;;;;;6.87;4.50;;;9.60;99.90;;;;;;5011645;28;20408;-69
2024/02/04 00:35:48;;;;;;;5.70;4.13;;;9.60;99.90;;;;;;5017073;28;20664;-70
2024/02/04 00:38:13;;;;;;;6.40;4.97;;;9.60;99.90;;;;;;5014539;28;20531;-69
2024/02/04 00:40:39;;;;;;;4.10;3.60;;;9.70;99.90;;;;;;5011394;28;20231;-69
2024/02/04 00:43:05;;;;;;;4.23;3.50;;;9.60;99.90;;;;;;5014800;28;20184;-69
2024/02/04 00:45:31;;;;;;;5.67;4.63;;;9.60;99.90;;;;;;5014924;28;20641;-70
2024/02/04 00:47:56;;;;;;;6.60;4.57;;;9.60;99.90;;;;;;5016778;28;20673;-69
2024/02/04 00:50:22;;;;;;;6.67;5.07;;;9.70;99.90;;;;;;5011468;28;20178;-70
2024/02/04 00:52:47;;;;;;;5.13;4.10;;;9.60;99.90;;;;;;5009616;28;20196;-69
2024/02/04 00:55:15;;;;;;;5.23;4.17;;;9.60;99.90;;;;;;5012311;28;20252;-69
2024/02/04 00:57:41;;;;;;;4.70;4.20;;;9.60;99.90;;;;;;5015346;28;20208;-69
2024/02/04 01:00:07;;;;;;;4.80;3.90;;;9.70;99.90;;;;;;5015218;28;20995;-70
2024/02/04 01:02:33;;;;;;;6.10;4.83;;;9.70;99.90;;;;;;5020728;28;20726;-69
2024/02/04 01:04:59;;;;;;;4.77;4.07;;;9.70;99.90;;;;;;5018850;28;20435;-69
2024/02/04 01:07:25;;;;;;;4.93;4.27;;;9.60;99.90;;;;;;5008336;28;20443;-69
2024/02/04 01:09:50;;;;;;;5.00;3.87;;;9.60;99.90;;;;;;5019013;28;20200;-69
2024/02/04 01:12:16;;;;;;;4.63;3.53;;;9.60;99.90;;;;;;5014880;28;20607;-69
2024/02/04 01:14:42;;;;;;;7.17;4.27;;;9.60;99.90;;;;;;5015653;28;20197;-69
2024/02/04 01:17:08;;;;;;;4.43;4.03;;;9.70;99.90;;;;;;5017483;28;20196;-71
2024/02/04 01:19:33;;;;;;;5.57;4.70;;;9.70;99.90;;;;;;5012865;28;20909;-69
2024/02/04 01:21:59;;;;;;;3.90;3.40;;;9.60;99.90;;;;;;5009509;28;20588;-69
2024/02/04 01:24:25;;;;;;;4.40;3.57;;;9.70;99.90;;;;;;5010942;28;20213;-69
2024/02/04 01:26:51;;;;;;;5.30;4.00;;;9.70;99.90;;;;;;5017925;28;20725;-69
2024/02/04 01:29:16;;;;;;;5.20;3.60;;;9.80;99.90;;;;;;5020795;28;20261;-69
2024/02/04 01:31:42;;;;;;;6.80;3.97;;;9.80;99.90;;;;;;5018332;28;20435;-69
2024/02/04 01:34:08;;;;;;;5.13;4.10;;;9.80;99.90;;;;;;5012767;28;20204;-69
2024/02/04 01:36:33;;;;;;;4.80;4.00;;;9.70;99.90;;;;;;5014524;28;20181;-69
2024/02/04 01:38:59;;;;;;;5.10;4.03;;;9.70;99.90;;;;;;5011396;28;20560;-69
2024/02/04 01:41:27;;;;;;;4.13;3.30;;;9.70;99.90;;;;;;5011145;28;20953;-68
2024/02/04 01:43:53;;;;;;;4.30;3.40;;;9.70;99.90;;;;;;5013308;28;20295;-69
2024/02/04 01:46:19;;;;;;;5.60;4.40;;;9.60;99.90;;;;;;5019890;28;20427;-69
2024/02/04 01:48:44;;;;;;;4.20;3.67;;;9.70;99.90;;;;;;5012324;28;20419;-69
2024/02/04 01:51:11;;;;;;;4.40;3.57;;;9.70;99.90;;;;;;5011374;28;20180;-69
2024/02/04 01:53:38;;;;;;;5.27;4.00;;;9.80;99.90;;;;;;5016353;28;20188;-69
2024/02/04 01:56:05;;;;;;;4.93;3.60;;;9.80;99.90;;;;;;5020771;28;20434;-69
2024/02/04 01:58:31;;;;;;;4.53;3.20;;;9.80;99.90;;;;;;5010782;28;21161;-69
2024/02/04 02:00:57;;;;;;;5.67;3.83;;;9.70;99.90;;;;;;5015131;28;20411;-69
2024/02/04 02:03:24;;;;;;;4.90;3.73;;;9.60;99.90;;;;;;5017435;28;20231;-68
2024/02/04 02:05:50;;;;;;;5.33;3.67;;;9.60;99.90;;;;;;5011421;28;20475;-68
2024/02/04 02:08:16;;;;;;;4.23;3.77;;;9.70;99.90;;;;;;5014796;28;20513;-69
2024/02/04 02:10:46;;;;;;;4.30;3.33;;;9.60;99.90;;;;;;5019026;28;20411;-69
2024/02/04 02:13:28;;;;;;;4.80;3.73;;;9.50;99.90;;;;;;5008708;28;20417;-69
2024/02/04 02:16:07;;;;;;;4.23;3.50;;;9.60;99.90;;;;;;5016440;28;20823;-68
2024/02/04 02:18:41;;;;;;;4.57;3.30;;;9.60;99.90;;;;;;5012262;28;20507;-68
2024/02/04 02:21:24;;;;;;;5.70;3.60;;;9.60;99.90;;;;;;5008696;28;20466;-68
2024/02/04 02:24:23;;;;;;;4.43;3.30;;;9.50;99.90;;;;;;5012087;28;20458;-69
2024/02/04 02:26:53;;;;;;;4.70;3.63;;;9.50;99.90;;;;;;5012871;28;20419;-68
2024/02/04 02:29:18;;;;;;;4.50;2.73;;;9.50;99.90;;;;;;5016779;28;20879;-69
2024/02/04 02:31:45;;;;;;;5.43;4.27;;;9.40;99.90;;;;;;5013781;28;20515;-69
2024/02/04 02:34:11;;;;;;;4.00;3.20;;;9.40;99.90;;;;;;5012871;28;20204;-69
2024/02/04 02:36:44;;;;;;;5.03;4.20;;;9.30;99.90;;;;;;5017387;28;20447;-69
2024/02/04 02:39:18;;;;;;;4.43;3.10;;;9.30;99.90;;;;;;5014831;28;20189;-69
2024/02/04 02:41:49;;;;;;;3.80;2.83;;;9.30;99.90;;;;;;5014356;28;20468;-69
2024/02/04 02:44:16;;;;;;;4.33;3.73;;;9.40;99.90;;;;;;5011776;28;20526;-69
2024/02/04 02:46:42;;;;;;;5.17;3.10;;;9.30;99.90;;;;;;5013919;28;20873;-69
2024/02/04 02:49:08;;;;;;;4.20;3.40;;;9.30;99.90;;;;;;5017061;28;20494;-69
2024/02/04 02:51:33;;;;;;;3.47;2.90;;;9.30;99.90;;;;;;5011711;28;20442;-69
2024/02/04 02:53:59;;;;;;;5.00;3.70;;;9.30;99.90;;;;;;5010285;28;20447;-69
2024/02/04 02:56:24;;;;;;;3.47;2.87;;;9.30;99.90;;;;;;5019917;28;20749;-69
2024/02/04 02:58:50;;;;;;;4.77;3.03;;;9.20;99.90;;;;;;5016755;28;20180;-69
2024/02/04 03:01:15;;;;;;;3.83;2.90;;;9.30;99.90;;;;;;5016543;28;20216;-69
2024/02/04 03:03:41;;;;;;;3.77;2.87;;;9.20;99.90;;;;;;5017441;28;20192;-69
2024/02/04 03:06:07;;;;;;;3.70;3.10;;;9.30;99.90;;;;;;5011371;28;20655;-69
2024/02/04 03:08:33;;;;;;;3.97;2.80;;;9.30;99.90;;;;;;5019003;28;20180;-69
2024/02/04 03:10:58;;;;;;;3.83;3.20;;;9.30;99.90;;;;;;5014229;28;20435;-69
2024/02/04 03:13:24;;;;;;;5.00;3.20;;;9.20;99.90;;;;;;5008907;28;20679;-69
2024/02/04 03:15:50;;;;;;;4.00;3.13;;;9.20;99.90;;;;;;5010228;28;20751;-69
2024/02/04 03:18:15;;;;;;;3.20;2.77;;;9.30;99.90;;;;;;5018224;28;20524;-69
2024/02/04 03:20:41;;;;;;;4.47;2.97;;;9.20;99.90;;;;;;5012943;28;20185;-69
2024/02/04 03:23:06;;;;;;;3.63;2.40;;;9.20;99.90;;;;;;5011259;28;20622;-69
2024/02/04 03:25:32;;;;;;;3.90;2.47;;;9.20;99.90;;;;;;5014052;28;20186;-69
2024/02/04 03:27:57;;;;;;;3.40;2.60;;;9.20;99.90;;;;;;5016469;28;20226;-69
2024/02/04 03:30:23;;;;;;;3.20;2.70;;;9.20;99.90;;;;;;5017895;28;20196;-69
2024/02/04 03:32:48;;;;;;;4.10;2.83;;;9.20;99.90;;;;;;5016532;28;20259;-69
2024/02/04 03:35:14;;;;;;;3.20;2.60;;;9.20;99.90;;;;;;5017779;28;20208;-70
2024/02/04 03:37:39;;;;;;;4.10;2.67;;;9.30;99.90;;;;;;5012701;28;20243;-69
2024/02/04 03:40:06;;;;;;;3.27;2.60;;;9.10;99.90;;;;;;5017079;28;20177;-69
2024/02/04 03:42:31;;;;;;;3.50;3.20;;;9.20;99.90;;;;;;5012443;28;20205;-69
2024/02/04 03:44:57;;;;;;;3.83;2.10;;;9.20;99.90;;;;;;5016110;28;20861;-70
2024/02/04 03:47:25;;;;;;;5.73;3.47;;;9.20;99.90;;;;;;5013847;28;20208;-69
2024/02/04 03:49:51;;;;;;;3.30;2.37;;;9.10;99.90;;;;;;5012783;28;20180;-69
2024/02/04 03:52:16;;;;;;;3.87;2.50;;;9.10;99.90;;;;;;5014214;28;20438;-69
2024/02/04 03:54:42;;;;;;;2.90;2.23;;;9.10;99.90;;;;;;5012282;28;20212;-69
2024/02/04 03:57:07;;;;;;;6.50;2.50;;;9.20;99.90;;;;;;5004643;28;20189;-70
2024/02/04 03:59:33;;;;;;;3.93;2.20;;;9.30;99.90;;;;;;5015055;28;20181;-69
2024/02/04 04:01:58;;;;;;;2.90;2.17;;;9.20;99.90;;;;;;5016279;28;20316;-70
2024/02/04 04:04:25;;;;;;;3.83;2.47;;;9.20;99.90;;;;;;5013673;28;20654;-70
2024/02/04 04:06:51;;;;;;;3.23;2.50;;;9.30;99.90;;;;;;5016007;28;20172;-70
2024/02/04 04:09:17;;;;;;;3.90;2.40;;;9.20;99.90;;;;;;5013076;28;20419;-70
2024/02/04 04:11:42;;;;;;;3.07;2.67;;;9.10;99.90;;;;;;5009553;28;20260;-69
2024/02/04 04:14:08;;;;;;;3.03;2.40;;;9.10;99.90;;;;;;5008987;28;20231;-70
2024/02/04 04:16:33;;;;;;;3.17;2.27;;;9.10;99.90;;;;;;5010713;28;20639;-70
2024/02/04 04:18:59;;;;;;;3.20;2.80;;;9.10;99.90;;;;;;5014287;28;20180;-69
2024/02/04 04:21:25;;;;;;;3.17;2.57;;;9.10;99.90;;;;;;5007038;28;20207;-69
2024/02/04 04:23:50;;;;;;;3.70;2.93;;;9.10;99.90;;;;;;5011008;28;20786;-69
2024/02/04 04:26:16;;;;;;;4.53;2.67;;;9.10;99.90;;;;;;5018795;28;20226;-70
2024/02/04 04:28:41;;;;;;;3.00;2.17;;;9.10;99.90;;;;;;5016195;28;20192;-69
2024/02/04 04:31:07;;;;;;;6.60;2.30;;;9.20;99.90;;;;;;5024603;28;20185;-70
2024/02/04 04:33:33;;;;;;;3.37;2.30;;;9.20;99.90;;;;;;5025211;28;20205;-70
2024/02/04 04:35:58;;;;;;;3.50;2.70;;;9.10;99.90;;;;;;5017681;28;20192;-69
2024/02/04 04:38:24;;;;;;;3.53;2.70;;;9.10;99.90;;;;;;5014125;28;20857;-69
2024/02/04 04:40:49;;;;;;;3.13;2.60;;;9.10;99.90;;;;;;5018380;28;20173;-69
2024/02/04 04:43:15;;;;;;;3.77;2.67;;;9.10;99.90;;;;;;5023582;28;20662;-69
2024/02/04 04:45:41;;;;;;;3.97;2.63;;;9.10;99.90;;;;;;5016294;28;20205;-69
2024/02/04 04:48:09;;;;;;;2.93;2.60;;;9.20;99.90;;;;;;5015261;28;20747;-69
2024/02/04 04:50:35;;;;;;;3.10;2.57;;;9.10;99.90;;;;;;5014916;28;20184;-69
2024/02/04 04:53:01;;;;;;;3.53;2.50;;;9.10;99.90;;;;;;5016348;28;20458;-69
2024/02/04 04:55:26;;;;;;;3.47;2.70;;;9.00;99.90;;;;;;5018987;28;20447;-69
2024/02/04 04:57:52;;;;;;;3.53;2.73;;;9.00;99.90;;;;;;5015080;28;20697;-69
2024/02/04 05:00:18;;;;;;;5.10;2.60;;;9.00;99.90;;;;;;5006056;28;20270;-69
2024/02/04 05:02:44;;;;;;;3.80;2.60;;;8.90;99.90;;;;;;5016364;28;20231;-69
2024/02/04 05:05:12;;;;;;;2.97;2.50;;;8.90;99.90;;;;;;5009670;28;20463;-69
2024/02/04 05:07:38;;;;;;;3.00;2.33;;;8.90;99.90;;;;;;5015220;28;20173;-69
2024/02/04 05:10:04;;;;;;;5.73;2.60;;;8.80;99.90;;;;;;5022366;28;20431;-69
2024/02/04 05:12:30;;;;;;;3.87;2.77;;;8.80;99.90;;;;;;5013530;28;20176;-69
2024/02/04 05:14:55;;;;;;;3.20;1.93;;;8.90;99.90;;;;;;5019679;28;20453;-69
2024/02/04 05:17:21;;;;;;;4.03;2.80;;;8.80;99.90;;;;;;5012723;28;20279;-69
2024/02/04 05:19:47;;;;;;;3.53;2.80;;;8.80;99.90;;;;;;5016487;28;20188;-69
2024/02/04 05:22:12;;;;;;;4.63;2.97;;;8.70;99.90;;;;;;5016442;28;20558;-69
2024/02/04 05:24:38;;;;;;;3.63;2.63;;;8.70;99.90;;;;;;5012391;28;20219;-69
2024/02/04 05:27:04;;;;;;;3.37;2.70;;;8.70;99.90;;;;;;5016666;28;20204;-69
2024/02/04 05:29:31;;;;;;;3.87;2.90;;;8.80;99.90;;;;;;5017057;28;20541;-69
2024/02/04 05:31:56;;;;;;;3.57;2.80;;;8.70;99.90;;;;;;5020455;28;20426;-69
2024/02/04 05:34:22;;;;;;;3.53;2.23;;;8.70;99.90;;;;;;5011791;28;20455;-69
2024/02/04 05:36:47;;;;;;;3.77;2.60;;;8.70;99.90;;;;;;5018756;28;20234;-69
2024/02/04 05:39:16;;;;;;;3.60;2.57;;;8.70;99.90;;;;;;5013659;28;20177;-69
2024/02/04 05:41:42;;;;;;;4.00;2.50;;;8.70;99.90;;;;;;5023290;28;20208;-69
2024/02/04 05:44:08;;;;;;;5.90;3.33;;;8.70;99.90;;;;;;5018600;28;20438;-69
2024/02/04 05:46:37;;;;;;;3.90;3.00;;;8.60;99.90;;;;;;5014787;28;20446;-69
2024/02/04 05:49:03;;;;;;;3.80;2.57;;;8.70;99.90;;;;;;5013052;28;20536;-69
2024/02/04 05:51:30;;;;;;;4.23;2.63;;;8.60;99.90;;;;;;5013801;28;20856;-69
2024/02/04 05:53:56;;;;;;;2.83;2.33;;;8.70;99.90;;;;;;5022853;28;20534;-69
2024/02/04 05:56:21;;;;;;;3.20;2.33;;;8.60;99.90;;;;;;5019612;28;20506;-69
2024/02/04 05:58:47;;;;;;;3.53;2.30;;;8.60;99.90;;;;;;5013276;28;20181;-69
2024/02/04 06:01:13;;;;;;;4.00;2.47;;;8.70;99.90;;;;;;5016614;28;20246;-69
2024/02/04 06:03:38;;;;;;;2.60;2.10;;;8.70;99.90;;;;;;5007517;28;20197;-69
2024/02/04 06:06:04;;;;;;;4.33;2.40;;;8.80;99.90;;;;;;5014062;28;20822;-69
2024/02/04 06:08:30;;;;;;;4.07;2.80;;;8.80;99.90;;;;;;5013751;28;20212;-69
2024/02/04 06:10:55;;;;;;;3.30;2.53;;;8.80;99.90;;;;;;5015259;28;20181;-69
2024/02/04 06:13:21;;;;;;;3.17;2.20;;;8.70;99.90;;;;;;5013515;28;20412;-69
2024/02/04 06:15:47;;;;;;;2.90;2.33;;;8.80;99.90;;;;;;5015235;28;20196;-69
2024/02/04 06:18:12;;;;;;;3.60;2.60;;;8.70;99.90;;;;;;5014457;28;20181;-69
2024/02/04 06:20:43;;;;;;;3.50;2.27;;;8.80;99.90;;;;;;5013931;28;20617;-69
2024/02/04 06:23:09;;;;;;;3.60;2.70;;;8.70;99.90;;;;;;5012421;28;20211;-69
2024/02/04 06:25:34;;;;;;;3.00;2.67;;;8.80;99.90;;;;;;5011956;28;20415;-69
2024/02/04 06:28:00;;;;;;;3.53;2.80;;;8.90;99.90;;;;;;5015655;28;20188;-69
2024/02/04 06:30:25;;;;;;;3.00;2.27;;;8.80;99.90;;;;;;5015238;28;20187;-69
2024/02/04 06:32:51;;;;;;;2.80;2.13;;;8.80;99.90;;;;;;5021359;28;20185;-69
2024/02/04 06:35:19;;;;;;;4.00;2.70;;;8.80;99.90;;;;;;5022636;28;20204;-70
2024/02/04 06:37:44;;;;;;;3.17;2.50;;;8.80;99.90;;;;;;5014607;28;20683;-70
2024/02/04 06:40:10;;;;;;;2.40;1.80;;;8.90;99.90;;;;;;5011126;28;20443;-69
2024/02/04 06:42:36;;;;;;;4.13;2.67;;;8.80;99.90;;;;;;5011303;28;20335;-69
2024/02/04 06:45:02;;;;;;;3.67;2.43;;;8.80;99.90;;;;;;5013943;28;20923;-70
2024/02/04 06:47:27;;;;;;;3.43;2.00;;;8.80;99.90;;;;;;5015654;28;20543;-69
2024/02/04 06:49:53;;;;;;;2.40;1.63;;;8.80;99.90;;;;;;5018592;28;20187;-69
2024/02/04 06:52:18;;;;;;;2.90;2.00;;;8.80;99.90;;;;;;5017684;28;20181;-69
2024/02/04 06:54:44;;;;;;;3.20;1.90;;;8.80;99.90;;;;;;5011749;28;20724;-70
2024/02/04 06:57:10;;;;;;;3.07;2.30;;;8.80;99.90;;;;;;5009930;28;20176;-70
2024/02/04 06:59:35;;;;;;;4.80;2.63;;;8.80;99.90;;;;;;5012334;28;20444;-70
2024/02/04 07:02:04;;;;;;;2.80;1.97;;;8.80;99.90;;;;;;5013024;28;20673;-69
2024/02/04 07:04:29;;;;;;;2.93;2.10;;;8.80;99.90;;;;;;5011919;28;20208;-69
2024/02/04 07:06:55;;;;;;;2.63;1.97;;;8.80;99.90;;;;;;5012652;28;20562;-70
2024/02/04 07:09:21;;;;;;;2.30;1.60;;;8.90;99.90;;;;;;5015522;28;20181;-69
2024/02/04 07:11:46;;;;;;;2.60;1.90;;;8.90;99.90;;;;;;5012762;28;20498;-70
2024/02/04 07:14:13;;;;;;;2.70;2.40;;;8.90;99.90;;;;;;5019542;28;20291;-69
2024/02/04 07:16:38;;;;;;;2.17;1.37;;;8.80;99.90;;;;;;5018321;28;20212;-69
2024/02/04 07:19:04;;;;;;;2.70;1.93;;;8.90;99.90;;;;;;5010178;28;20427;-69
2024/02/04 07:21:32;;;;;;;2.63;2.03;;;8.90;99.90;;;;;;5019540;28;20212;-69
2024/02/04 07:23:57;;;;;;;2.00;1.50;;;8.90;99.90;;;;;;5015713;28;20189;-69
2024/02/04 07:26:23;;;;;;;2.40;1.93;;;8.90;99.90;;;;;;5005876;28;20706;-69
2024/02/04 07:28:48;;;;;;;6.87;1.80;;;9.00;99.90;;;;;;5009533;28;20174;-69
2024/02/04 07:31:14;;;;;;;2.10;1.40;;;9.00;99.90;;;;;;5011431;28;20177;-69
2024/02/04 07:33:40;;;;;;;4.33;1.70;;;8.90;99.90;;;;;;5010804;28;20201;-69
2024/02/04 07:36:06;;;;;;;3.20;1.57;;;8.90;99.90;;;;;;5015054;28;20181;-69
2024/02/04 07:38:33;;;;;;;1.90;1.40;;;9.00;99.90;;;;;;5009930;28;20243;-70
2024/02/04 07:40:59;;;;;;;3.20;1.90;;;9.10;99.90;;;;;;5010679;28;20424;-69
2024/02/04 07:43:25;;;;;;;4.43;1.40;;;9.10;99.90;;;;;;5012873;28;20457;-69
2024/02/04 07:45:51;;;;;;;2.00;1.50;;;9.10;99.90;;;;;;5018697;28;20180;-69
2024/02/04 07:48:17;;;;;;;2.77;1.50;;;9.20;99.90;;;;;;5009482;28;20177;-70
2024/02/04 07:50:43;;;;;;;2.67;1.40;;;9.10;99.90;;;;;;5011168;28;20282;-70
2024/02/04 07:53:08;;;;;;;2.40;1.50;;;9.10;99.90;;;;;;5012325;28;20442;-70
2024/02/04 07:55:34;;;;;;;4.70;2.30;;;9.20;99.90;;;;;;5011089;28;20243;-69
2024/02/04 07:57:59;;;;;;;2.13;1.40;;;9.30;99.90;;;;;;5014058;28;20516;-70
2024/02/04 08:00:25;;;;;;;1.90;1.30;;;9.20;99.90;;;;;;5006615;28;20193;-69
2024/02/04 08:02:50;;;;;;;2.13;1.40;;;9.20;99.90;;;;;;5016717;28;20454;-69
2024/02/04 08:05:16;;;;;;;4.33;1.60;;;9.20;99.90;;;;;;5009821;28;20287;-70
2024/02/04 08:07:42;;;;;;;3.20;1.50;;;9.20;99.90;;;;;;5009855;28;21643;-70
2024/02/04 08:10:08;;;;;;;2.10;1.33;;;9.20;99.90;;;;;;5013087;28;20251;-70
2024/02/04 08:12:33;;;;;;;2.23;1.17;;;9.10;99.90;;;;;;5012702;28;20268;-69
2024/02/04 08:14:59;;;;;;;2.53;1.50;;;9.10;99.90;;;;;;5009404;28;20918;-70
2024/02/04 08:17:25;;;;;;;2.37;1.40;;;9.20;99.90;;;;;;5013436;28;20200;-69
2024/02/04 08:19:51;;;;;;;3.30;1.27;;;9.20;99.90;;;;;;5016335;28;20840;-70
2024/02/04 08:22:18;;;;;;;1.70;1.20;;;9.20;99.90;;;;;;5009102;28;20617;-69
2024/02/04 08:24:43;;;;;;;1.77;1.13;;;9.10;99.90;;;;;;5015025;28;20213;-70
2024/02/04 08:27:09;;;;;;;1.80;1.20;;;9.20;99.90;;;;;;5016406;28;20415;-69
2024/02/04 08:29:34;;;;;;;4.60;1.50;;;9.20;99.90;;;;;;5013903;28;20353;-69
2024/02/04 08:32:00;;;;;;;1.80;1.20;;;9.20;99.90;;;;;;5013211;28;20180;-70
2024/02/04 08:34:26;;;;;;;1.90;1.37;;;9.20;99.90;;;;;;5012820;28;20274;-69
2024/02/04 08:36:52;;;;;;;5.43;1.33;;;9.10;99.90;;;;;;5011453;28;20534;-69
2024/02/04 08:39:18;;;;;;;2.20;1.20;;;9.10;99.90;;;;;;5018640;28;20259;-69
2024/02/04 08:41:43;;;;;;;3.30;1.30;;;9.10;99.90;;;;;;5008762;28;21010;-69
2024/02/04 08:44:09;;;;;;;1.70;1.20;;;9.10;99.90;;;;;;5011346;28;20259;-69
2024/02/04 08:46:34;;;;;;;2.10;1.30;;;9.20;99.90;;;;;;5011067;28;20190;-69
2024/02/04 08:49:00;;;;;;;2.07;1.33;;;9.20;99.90;;;;;;5012114;28;20185;-69
2024/02/04 08:51:25;;;;;;;2.20;1.60;;;9.30;99.90;;;;;;5013090;28;20657;-70
2024/02/04 08:53:52;;;;;;;2.00;1.20;;;9.30;99.90;;;;;;5013253;28;20210;-70
2024/02/04 08:56:17;;;;;;;2.00;1.20;;;9.30;99.90;;;;;;5011013;28;20181;-69
2024/02/04 08:58:45;;;;;;;2.23;1.23;;;9.30;99.90;;;;;;5007523;28;20525;-69
2024/02/04 09:01:10;;;;;;;2.53;1.10;;;9.30;99.90;;;;;;5007649;28;20585;-69
2024/02/04 09:03:36;;;;;;;1.93;1.30;;;9.30;99.90;;;;;;5008998;28;20462;-70
2024/02/04 09:06:02;;;;;;;2.80;1.53;;;9.30;99.90;;;;;;5011525;28;20544;-70
2024/02/04 09:08:27;;;;;;;2.20;1.40;;;9.30;99.90;;;;;;5009819;28;20432;-69
2024/02/04 09:10:53;;;;;;;2.43;1.47;;;9.40;99.90;;;;;;5013649;28;20570;-69
2024/02/04 09:13:19;;;;;;;2.13;1.30;;;9.40;99.90;;;;;;5010155;28;20531;-69
2024/02/04 09:15:44;;;;;;;4.93;1.50;;;9.40;99.90;;;;;;5010126;28;20228;-69
2024/02/04 09:18:10;;;;;;;2.00;1.40;;;9.40;99.90;;;;;;5019357;28;20189;-69
2024/02/04 09:20:35;;;;;;;2.53;1.30;;;9.30;99.90;;;;;;5013419;28;20200;-69
2024/02/04 09:23:01;;;;;;;1.90;1.40;;;9.50;99.90;;;;;;5016045;28;20292;-69
2024/02/04 09:25:26;;;;;;;2.00;1.40;;;9.50;99.90;;;;;;5014634;28;20205;-69
2024/02/04 09:27:52;;;;;;;3.80;1.40;;;9.50;99.90;;;;;;5013929;28;20263;-69
2024/02/04 09:30:17;;;;;;;2.63;1.40;;;9.50;99.90;;;;;;5018361;28;20189;-69
2024/02/04 09:32:43;;;;;;;2.87;1.77;;;9.50;99.90;;;;;;5018308;28;20606;-69
2024/02/04 09:35:11;;;;;;;3.60;1.43;;;9.50;99.90;;;;;;5015253;28;20208;-69
2024/02/04 09:37:37;;;;;;;2.93;1.37;;;9.60;99.90;;;;;;5012408;28;20185;-69
2024/02/04 09:40:04;;;;;;;2.03;1.40;;;9.60;99.90;;;;;;5014021;28;20503;-69
2024/02/04 09:42:31;;;;;;;2.10;1.40;;;9.60;99.90;;;;;;5018303;28;20600;-69
2024/02/04 09:44:56;;;;;;;2.67;1.40;;;9.50;99.90;;;;;;5016108;28;20444;-69
2024/02/04 09:47:22;;;;;;;1.80;1.10;;;9.60;99.90;;;;;;5017445;28;20837;-70
2024/02/04 09:49:48;;;;;;;2.60;1.50;;;9.50;99.90;;;;;;5015325;28;20197;-70
2024/02/04 09:52:19;;;;;;;2.03;1.40;;;9.60;99.90;;;;;;5016972;28;20184;-70
2024/02/04 09:54:53;;;;;;;2.00;1.30;;;9.60;99.90;;;;;;5008607;28;20212;-70
2024/02/04 09:57:18;;;;;;;1.90;1.20;;;9.70;99.90;;;;;;5012605;28;20467;-69
2024/02/04 09:59:44;;;;;;;2.47;1.30;;;9.60;99.90;;;;;;5015555;28;20479;-70
2024/02/04 10:02:10;;;;;;;3.90;1.33;;;9.60;99.90;;;;;;5012118;28;20291;-70
2024/02/04 10:04:36;;;;;;;2.53;1.20;;;9.60;99.90;;;;;;5005347;28;20569;-70
2024/02/04 10:07:02;;;;;;;2.10;1.43;;;9.60;99.90;;;;;;5017219;28;20188;-70
2024/02/04 10:09:29;;;;;;;1.80;1.20;;;9.60;99.90;;;;;;5018303;28;20427;-70
2024/02/04 10:11:56;;;;;;;1.70;1.10;;;9.60;99.90;;;;;;5016882;28;20953;-69
2024/02/04 10:14:22;;;;;;;2.93;1.10;;;9.70;99.90;;;;;;5011783;28;20459;-69
2024/02/04 10:16:47;;;;;;;3.73;1.30;;;9.60;99.90;;;;;;5017654;28;20531;-69
2024/02/04 10:19:13;;;;;;;2.13;1.50;;;9.60;99.90;;;;;;5012229;28;20189;-69
2024/02/04 10:21:39;;;;;;;2.67;1.53;;;9.60;99.90;;;;;;5011121;28;20259;-69
2024/02/04 10:24:06;;;;;;;2.00;1.30;;;9.60;99.90;;;;;;5016294;28;20209;-69
2024/02/04 10:26:34;;;;;;;1.80;1.40;;;9.60;99.90;;;;;;5015987;28;20257;-68
2024/02/04 10:29:00;;;;;;;2.43;1.33;;;9.60;99.90;;;;;;5013846;28;20416;-69
2024/02/04 10:31:27;;;;;;;3.70;1.30;;;9.60;99.90;;;;;;5016568;28;20428;-70
2024/02/04 10:33:54;;;;;;;1.87;1.30;;;9.80;99.90;;;;;;5015325;28;20459;-69
2024/02/04 10:36:20;;;;;;;1.70;1.10;;;9.80;99.90;;;;;;5016073;28;20442;-69
2024/02/04 10:38:46;;;;;;;1.97;1.30;;;9.90;99.90;;;;;;5018446;28;20427;-69
2024/02/04 10:41:15;;;;;;;2.40;1.30;;;9.90;99.90;;;;;;5010541;28;20185;-69
2024/02/04 10:43:43;;;;;;;1.90;1.30;;;10.00;99.90;;;;;;5010986;28;20439;-69
2024/02/04 10:46:15;;;;;;;1.90;1.40;;;10.10;99.90;;;;;;4995425;28;20417;-69
2024/02/04 10:48:44;;;;;;;2.63;1.30;;;9.90;99.90;;;;;;5016854;28;20408;-69
2024/02/04 10:51:16;;;;;;;2.43;1.57;;;9.90;99.90;;;;;;5016481;28;20423;-69
2024/02/04 10:53:43;;;;;;;3.37;1.40;;;9.90;99.90;;;;;;5013342;28;20456;-69
2024/02/04 10:56:19;;;;;;;1.90;1.30;;;10.00;99.90;;;;;;5011589;28;20427;-70
2024/02/04 10:58:46;;;;;;;2.00;1.20;;;10.00;99.90;;;;;;5012322;28;20486;-70
2024/02/04 11:01:12;;;;;;;1.80;1.30;;;10.10;99.90;;;;;;5010855;28;20455;-69
2024/02/04 11:03:39;;;;;;;1.90;1.30;;;10.10;99.90;;;;;;5010750;28;20446;-70
2024/02/04 11:06:05;;;;;;;1.80;1.30;;;10.10;99.90;;;;;;5014205;28;20469;-70
2024/02/04 11:08:31;;;;;;;2.03;1.40;;;10.30;99.90;;;;;;5013287;28;20495;-69
2024/02/04 11:10:56;;;;;;;3.20;1.50;;;10.40;99.90;;;;;;5012866;28;20176;-71
2024/02/04 11:13:23;;;;;;;2.00;1.40;;;10.30;99.90;;;;;;5012781;28;20212;-69
2024/02/04 11:15:50;;;;;;;2.10;1.50;;;10.30;99.90;;;;;;5013426;28;20231;-70
2024/02/04 11:18:49;;;;;;;2.40;1.67;;;10.40;99.90;;;;;;5006785;28;20423;-70
2024/02/04 11:21:30;;;;;;;2.27;1.57;;;10.40;99.90;;;;;;5014139;28;20440;-70
2024/02/04 11:24:06;;;;;;;2.10;1.50;;;10.50;99.90;;;;;;5015236;28;20882;-70
2024/02/04 11:26:34;;;;;;;2.40;1.60;;;10.40;99.90;;;;;;5013425;28;20530;-70
2024/02/04 11:29:00;;;;;;;2.10;1.40;;;10.50;99.90;;;;;;5012229;28;20535;-70
2024/02/04 11:31:28;;;;;;;2.20;1.27;;;10.60;99.90;;;;;;5017705;28;20498;-70
2024/02/04 11:33:54;;;;;;;2.20;1.40;;;10.70;99.90;;;;;;5010530;28;20451;-69
2024/02/04 11:36:25;;;;;;;2.07;1.40;;;10.70;99.90;;;;;;5015693;28;20503;-69
2024/02/04 11:38:51;;;;;;;2.50;1.53;;;10.70;99.90;;;;;;5016748;28;20189;-68
2024/02/04 11:41:24;;;;;;;2.20;1.30;;;10.70;99.90;;;;;;5009636;28;20518;-69
2024/02/04 11:43:55;;;;;;;3.83;1.53;;;10.70;99.90;;;;;;5011365;28;20739;-69
2024/02/04 11:46:21;;;;;;;2.20;1.50;;;10.70;99.90;;;;;;5015540;28;20498;-69
2024/02/04 11:48:53;;;;;;;3.83;1.77;;;10.70;99.90;;;;;;5012769;28;20518;-69
2024/02/04 11:51:23;;;;;;;2.23;1.30;;;10.70;99.90;;;;;;5011926;28;20415;-69
2024/02/04 11:53:49;;;;;;;2.00;1.40;;;10.70;99.90;;;;;;5016244;28;20604;-69
2024/02/04 11:56:15;;;;;;;2.00;1.30;;;10.80;99.90;;;;;;5011085;28;20528;-69
2024/02/04 11:58:41;;;;;;;1.97;1.33;;;10.80;99.90;;;;;;5013050;28;20185;-69
2024/02/04 12:01:10;;;;;;;2.10;1.40;;;10.80;99.90;;;;;;5011891;28;20415;-69
2024/02/04 12:03:36;;;;;;;2.43;1.43;;;10.80;99.90;;;;;;5018699;28;20196;-69
2024/02/04 12:06:03;;;;;;;2.10;1.30;;;10.70;99.90;;;;;;5006918;28;21283;-69
2024/02/04 12:08:31;;;;;;;2.20;1.40;;;10.70;99.90;;;;;;5007938;28;20412;-69
2024/02/04 12:10:57;;;;;;;2.30;1.50;;;10.70;99.90;;;;;;5010773;28;20435;-69
2024/02/04 12:13:24;;;;;;;3.17;1.70;;;10.70;99.90;;;;;;5015886;28;20486;-69
2024/02/04 12:15:50;;;;;;;4.37;2.00;;;10.70;99.90;;;;;;5009169;28;21090;-69
2024/02/04 12:18:19;;;;;;;2.73;1.30;;;10.80;99.90;;;;;;5015370;28;20461;-69
2024/02/04 12:20:48;;;;;;;1.93;1.27;;;10.80;99.90;;;;;;5016817;28;20426;-69
2024/02/04 12:23:14;;;;;;;2.20;1.40;;;10.70;99.90;;;;;;5011875;28;20947;-69
2024/02/04 12:25:40;;;;;;;1.90;1.30;;;10.70;99.90;;;;;;5011760;28;20525;-69
2024/02/04 12:28:05;;;;;;;6.80;1.63;;;10.80;99.90;;;;;;5006842;28;20734;-69
2024/02/04 12:30:32;;;;;;;2.67;1.47;;;10.80;99.90;;;;;;5005202;28;20200;-69
2024/02/04 12:32:59;;;;;;;2.00;1.43;;;10.70;99.90;;;;;;5015714;28;20220;-69
2024/02/04 12:35:25;;;;;;;2.27;1.50;;;10.70;99.90;;;;;;5009260;28;20448;-69
2024/02/04 12:37:52;;;;;;;2.43;1.43;;;10.70;99.90;;;;;;5014822;28;20412;-69
2024/02/04 12:40:24;;;;;;;2.50;1.40;;;10.70;99.90;;;;;;5009555;28;20460;-69
2024/02/04 12:43:01;;;;;;;2.40;1.50;;;10.70;99.90;;;;;;5009406;28;20515;-70
2024/02/04 12:45:28;;;;;;;2.90;1.90;;;10.70;99.90;;;;;;5017160;28;20855;-69
2024/02/04 12:47:55;;;;;;;2.80;1.70;;;10.70;99.90;;;;;;5016163;28;20418;-69
2024/02/04 12:50:21;;;;;;;2.93;1.60;;;10.70;99.90;;;;;;5018700;28;21011;-69
2024/02/04 12:53:07;;;;;;;2.27;1.63;;;10.80;99.90;;;;;;5017312;28;20480;-69